Aérodrome :
LOGIN :

S'inscrire | Disclaimer

   EN    FR    IT 

 










Légende :    VFR   VFR Marginal   IFR   IFR Intensif   IFR Très Intensif
Visi : 
Plafond : 
>= 8 km
>= 3000ft
5 à 8 km
1000 à 3000 ft
1500m à 5 km
500 à 1000 ft
800 à 1500m
200 à 500 ft
< 800m
< 200 ft
Symboles :   Orages  Brouillard  Fortes neiges  Fortes précipitations  Vent > 20 kt
SIGMETs :   Divers  Orages  Givrage  Turbulence  Onde Orograph.  Cendres Volcan.







- Altitude de l'aérodrome : 1036 ft
- Code IATA : ERF


EDDE - Erfurt

DERNIER METAR :
  • 291250Z 25017KT 9999 FEW033 SCT044 16/07 Q1023 TEMPO 26015G25KT

METARs EXPIRÉS :
  • 291220Z 26017KT 9999 FEW033 SCT044 15/07 Q1023 TEMPO 26015G25KT
  • 291150Z 26017KT 9999 FEW033 SCT042 15/06 Q1023 TEMPO 26015G25KT
  • 291120Z 25021KT 9999 SCT033 SCT130 15/07 Q1023 TEMPO 26015G25KT
  • 291050Z 26019KT 9999 FEW033 SCT042 16/07 Q1023 TEMPO 26015G25KT
  • 291020Z 27019KT 9999 BKN037 SCT300 14/07 Q1024 TEMPO 26015G25KT

TAF TAF EDDE
Valide du 29 à 12h jusqu'au 30 à 12h UTC


291100Z 2912/3012 26015KT 9999 SCT040
TEMPO 2912/2917 26015G25KT
BECMG 2916/2918 26008KT
Pas de NOTAMs connus pour ce terrain.



MET'MAP, la Météo Aéronautique d'un coup d'oeil ! - Copyright ORBIFLY Décembre 2007 - Disclaimer

ORBIFLY MET'MAP TEAM :

Programmation & Développement : Alexandra Zaïnal
Conception & Développement : Baudouin d'Aumeries
Co-Programmation & Développement : Marc-Olivier Méhu
Soutien technique & logistique : Manuel Goepfert

Contact : metmap@orbifly.com




SOURCES & CREDITS :

   NOAA